Time;durP1;ratioP1;P1;durP2;ratioP2;P2;SDS_P1;SDS_P2;PMS_P1;PMS_P2;Temp;Humidity;BMP_temperature;BMP_pressure;BME280_temperature;BME280_humidity;BME280_pressure;Samples;Min_cycle;Max_cycle;Signal;HPM_P1;HPM_P2
2023/04/14 00:02:48;;;;;;;1.83;0.98;;;;;;;;;;10050093;29;20503;-87
2023/04/14 00:07:52;;;;;;;2.13;1.00;;;;;;;;;;10022360;29;20084;-87
2023/04/14 00:12:57;;;;;;;2.55;1.33;;;;;;;;;;10014426;29;20053;-87
2023/04/14 00:18:00;;;;;;;1.50;1.00;;;;;;;;;;10024503;29;20038;-87
2023/04/14 00:23:03;;;;;;;1.65;1.38;;;;;;;;;;10031485;29;20054;-87
2023/04/14 00:28:08;;;;;;;1.42;1.02;;;;;;;;;;10023745;29;20128;-87
2023/04/14 00:33:12;;;;;;;1.95;1.15;;;;;;;;;;10020036;29;20065;-86
2023/04/14 00:38:15;;;;;;;4.20;1.50;;;;;;;;;;10035165;29;20094;-87
2023/04/14 00:43:20;;;;;;;1.60;0.90;;;;;;;;;;10026276;29;20050;-86
2023/04/14 00:48:23;;;;;;;1.52;1.13;;;;;;;;;;10024903;29;20745;-87
2023/04/14 00:53:27;;;;;;;3.65;1.23;;;;;;;;;;10017070;29;20559;-86
2023/04/14 00:58:32;;;;;;;1.95;1.25;;;;;;;;;;10038940;29;20041;-88
2023/04/14 01:03:36;;;;;;;1.37;1.00;;;;;;;;;;10012097;29;20077;-87
2023/04/14 01:08:40;;;;;;;2.22;1.20;;;;;;;;;;10022550;29;20049;-88
2023/04/14 01:13:53;;;;;;;1.70;0.95;;;;;;;;;;10018165;29;20057;-86
2023/04/14 01:19:06;;;;;;;1.90;1.17;;;;;;;;;;10018313;29;20133;-87
2023/04/14 01:24:29;;;;;;;1.67;0.80;;;;;;;;;;10015536;29;20055;-86
2023/04/14 01:30:02;;;;;;;1.83;1.13;;;;;;;;;;10030222;29;20053;-86
2023/04/14 01:35:13;;;;;;;3.05;0.85;;;;;;;;;;10038127;29;20053;-87
2023/04/14 01:40:19;;;;;;;1.63;1.15;;;;;;;;;;10023822;29;20144;-87
2023/04/14 01:45:24;;;;;;;;;;;;;;;;;;10031993;29;20046;-87
2023/04/14 01:50:31;;;;;;;1.20;0.90;;;;;;;;;;10021789;29;20550;-86
2023/04/14 01:55:37;;;;;;;1.50;1.08;;;;;;;;;;10015215;29;20046;-90
2023/04/14 02:00:42;;;;;;;1.58;0.90;;;;;;;;;;10019519;29;20454;-88
2023/04/14 02:05:48;;;;;;;1.50;1.10;;;;;;;;;;10020074;29;20133;-89
2023/04/14 02:10:54;;;;;;;3.38;1.02;;;;;;;;;;10010955;29;20069;-88
2023/04/14 02:15:59;;;;;;;2.65;1.10;;;;;;;;;;10024013;29;20050;-90
2023/04/14 02:21:04;;;;;;;0.90;0.80;;;;;;;;;;10006686;29;20042;-90
2023/04/14 02:26:23;;;;;;;0.90;0.80;;;;;;;;;;10015419;29;20755;-89
2023/04/14 02:31:29;;;;;;;1.52;0.88;;;;;;;;;;10034305;29;20045;-91
2023/04/14 02:36:39;;;;;;;;;;;;;;;;;;10020290;29;20061;-91
2023/04/14 02:41:45;;;;;;;1.13;0.80;;;;;;;;;;10038197;29;20374;-89
2023/04/14 02:46:55;;;;;;;3.28;1.02;;;;;;;;;;10071324;23;20053;-85
2023/04/14 02:52:02;;;;;;;2.25;1.13;;;;;;;;;;10090594;29;20037;-85
2023/04/14 02:57:06;;;;;;;1.67;1.08;;;;;;;;;;10077622;29;20482;-83
2023/04/14 03:02:15;;;;;;;3.05;1.08;;;;;;;;;;10076301;29;20060;-85
2023/04/14 03:07:26;;;;;;;1.92;1.17;;;;;;;;;;10076800;29;20510;-85
2023/04/14 03:12:30;;;;;;;2.22;0.88;;;;;;;;;;10075848;29;20109;-85
2023/04/14 03:17:35;;;;;;;1.88;1.00;;;;;;;;;;10081619;29;20136;-83
2023/04/14 03:22:43;;;;;;;1.60;0.88;;;;;;;;;;10075404;29;20044;-85
2023/04/14 03:27:50;;;;;;;2.38;1.27;;;;;;;;;;10073101;29;20037;-84
2023/04/14 03:32:57;;;;;;;1.63;0.90;;;;;;;;;;10075246;29;20048;-84
2023/04/14 03:38:07;;;;;;;1.40;1.00;;;;;;;;;;10075629;29;20045;-84
2023/04/14 03:43:17;;;;;;;1.45;1.08;;;;;;;;;;10078353;29;20052;-85
2023/04/14 03:48:25;;;;;;;1.30;0.90;;;;;;;;;;10070571;29;20624;-85
2023/04/14 03:53:33;;;;;;;1.77;0.88;;;;;;;;;;10073825;29;20414;-85
2023/04/14 03:58:37;;;;;;;1.05;0.95;;;;;;;;;;10074248;29;20512;-85
2023/04/14 04:03:42;;;;;;;2.97;1.00;;;;;;;;;;10084331;29;20049;-85
2023/04/14 04:08:49;;;;;;;1.70;1.02;;;;;;;;;;10073600;29;20494;-85
2023/04/14 04:13:54;;;;;;;1.08;0.98;;;;;;;;;;10073903;29;20052;-85
2023/04/14 04:18:59;;;;;;;2.05;1.20;;;;;;;;;;10073320;29;20574;-85
2023/04/14 04:24:07;;;;;;;1.42;1.00;;;;;;;;;;10073119;29;20109;-85
2023/04/14 04:29:11;;;;;;;;;;;;;;;;;;10079802;29;20049;-85
2023/04/14 04:34:17;;;;;;;2.22;1.10;;;;;;;;;;10075265;29;19955;-85
2023/04/14 04:39:22;;;;;;;1.65;1.00;;;;;;;;;;10072872;29;20280;-86
2023/04/14 04:44:26;;;;;;;1.70;1.02;;;;;;;;;;10072349;29;20113;-86
2023/04/14 04:49:30;;;;;;;2.13;1.08;;;;;;;;;;10075446;29;20071;-85
2023/04/14 04:54:40;;;;;;;3.05;1.33;;;;;;;;;;10087873;29;20055;-85
2023/04/14 04:59:43;;;;;;;1.20;1.10;;;;;;;;;;10093401;29;20041;-85
2023/04/14 05:04:47;;;;;;;2.28;1.05;;;;;;;;;;10094774;29;20071;-86
2023/04/14 05:09:52;;;;;;;3.35;1.10;;;;;;;;;;10087081;29;20045;-85
2023/04/14 05:14:55;;;;;;;2.85;1.58;;;;;;;;;;10066949;29;20049;-84
2023/04/14 05:20:00;;;;;;;3.97;2.20;;;;;;;;;;10078652;29;20089;-85
2023/04/14 05:25:06;;;;;;;3.00;2.05;;;;;;;;;;10071211;29;20069;-83
2023/04/14 05:30:11;;;;;;;2.85;1.65;;;;;;;;;;10084279;29;20048;-85
2023/04/14 05:35:15;;;;;;;2.10;1.67;;;;;;;;;;10093850;29;20076;-85
2023/04/14 05:40:21;;;;;;;4.18;1.40;;;;;;;;;;10076754;29;20049;-86
2023/04/14 05:45:24;;;;;;;2.73;1.40;;;;;;;;;;10077996;29;20061;-86
2023/04/14 05:50:28;;;;;;;1.65;1.17;;;;;;;;;;10067419;29;20063;-86
2023/04/14 05:55:33;;;;;;;1.75;1.10;;;;;;;;;;10099933;29;20049;-85
2023/04/14 06:00:37;;;;;;;2.08;1.35;;;;;;;;;;10074050;29;20513;-85
2023/04/14 06:05:40;;;;;;;1.73;1.10;;;;;;;;;;10080684;29;20045;-86
2023/04/14 06:10:45;;;;;;;2.15;1.13;;;;;;;;;;10084966;29;20072;-86
2023/04/14 06:15:49;;;;;;;5.32;1.40;;;;;;;;;;10072363;29;20080;-87
2023/04/14 06:20:53;;;;;;;3.20;1.30;;;;;;;;;;10069907;29;20037;-85
2023/04/14 06:25:58;;;;;;;1.88;1.10;;;;;;;;;;10087436;29;20522;-85
2023/04/14 06:31:02;;;;;;;1.67;1.05;;;;;;;;;;10072821;29;20049;-84
2023/04/14 06:36:06;;;;;;;3.05;1.40;;;;;;;;;;10093824;29;20367;-86
2023/04/14 06:41:11;;;;;;;1.60;1.30;;;;;;;;;;10081963;29;20136;-86
2023/04/14 06:46:14;;;;;;;3.60;1.33;;;;;;;;;;10067815;29;20097;-86
2023/04/14 06:51:18;;;;;;;1.50;0.90;;;;;;;;;;10096792;29;20144;-86
2023/04/14 06:56:23;;;;;;;1.20;0.90;;;;;;;;;;10068609;29;20053;-86
2023/04/14 07:01:27;;;;;;;1.50;0.90;;;;;;;;;;10076458;29;20099;-86
2023/04/14 07:06:31;;;;;;;1.13;0.80;;;;;;;;;;10083037;29;20121;-86
2023/04/14 07:11:36;;;;;;;1.80;0.75;;;;;;;;;;10077624;29;20049;-87
2023/04/14 07:16:40;;;;;;;1.20;0.70;;;;;;;;;;10089429;29;20116;-87
2023/04/14 07:21:45;;;;;;;1.23;0.65;;;;;;;;;;10080432;29;20095;-87
2023/04/14 07:26:50;;;;;;;1.73;0.63;;;;;;;;;;10075266;29;20104;-87
2023/04/14 07:31:54;;;;;;;1.33;0.73;;;;;;;;;;10081162;29;20053;-87
2023/04/14 07:36:59;;;;;;;1.95;0.80;;;;;;;;;;10071421;29;20049;-86
2023/04/14 07:42:04;;;;;;;1.75;0.60;;;;;;;;;;10102707;29;20045;-87
2023/04/14 07:47:08;;;;;;;1.88;0.95;;;;;;;;;;10072492;29;20088;-87
2023/04/14 07:52:12;;;;;;;3.20;1.00;;;;;;;;;;10075726;29;20072;-87
2023/04/14 07:57:20;;;;;;;1.23;0.70;;;;;;;;;;10078912;29;20079;-87
2023/04/14 08:02:23;;;;;;;2.95;0.90;;;;;;;;;;10079166;29;20045;-86
2023/04/14 08:07:28;;;;;;;3.65;1.10;;;;;;;;;;10096351;29;20081;-87
2023/04/14 08:12:33;;;;;;;2.53;0.90;;;;;;;;;;10070122;29;20041;-87
2023/04/14 08:17:37;;;;;;;2.13;0.73;;;;;;;;;;10084113;29;20080;-86
2023/04/14 08:22:42;;;;;;;1.73;0.80;;;;;;;;;;10096126;29;20045;-87
2023/04/14 08:27:47;;;;;;;1.20;0.57;;;;;;;;;;10070059;29;20053;-86
2023/04/14 08:32:51;;;;;;;1.52;0.98;;;;;;;;;;10082030;29;20044;-87
2023/04/14 08:37:54;;;;;;;1.52;0.68;;;;;;;;;;10103600;29;20312;-87
2023/04/14 08:42:59;;;;;;;2.10;0.50;;;;;;;;;;10079850;29;20048;-87
2023/04/14 08:48:04;;;;;;;1.52;0.65;;;;;;;;;;10040800;24;20068;-82
2023/04/14 08:53:09;;;;;;;1.63;0.70;;;;;;;;;;10007832;29;20145;-86
2023/04/14 08:58:14;;;;;;;2.22;0.70;;;;;;;;;;10001294;29;20046;-86
2023/04/14 09:03:18;;;;;;;2.80;0.70;;;;;;;;;;9996236;29;20415;-84
2023/04/14 09:08:22;;;;;;;2.60;0.60;;;;;;;;;;9999959;29;20159;-85
2023/04/14 09:13:28;;;;;;;3.10;0.60;;;;;;;;;;9994290;29;20582;-83
2023/04/14 09:18:32;;;;;;;3.17;0.90;;;;;;;;;;9985144;29;20099;-84
2023/04/14 09:23:36;;;;;;;2.22;0.88;;;;;;;;;;9989589;29;20053;-84
2023/04/14 09:28:41;;;;;;;2.65;0.93;;;;;;;;;;9990474;29;20576;-83
2023/04/14 09:33:49;;;;;;;1.63;0.60;;;;;;;;;;10003592;29;20056;-83
2023/04/14 09:38:52;;;;;;;1.65;0.50;;;;;;;;;;9996029;29;21267;-83
2023/04/14 09:44:07;;;;;;;7.10;1.10;;;;;;;;;;9998650;29;20042;-83
2023/04/14 09:49:10;;;;;;;5.57;1.05;;;;;;;;;;10001447;29;20045;-84
2023/04/14 09:54:23;;;;;;;3.05;0.88;;;;;;;;;;10008985;29;20081;-83
2023/04/14 09:59:35;;;;;;;1.60;0.90;;;;;;;;;;10006693;29;20058;-83
2023/04/14 10:04:38;;;;;;;3.67;0.95;;;;;;;;;;10003124;29;20046;-82
2023/04/14 10:09:42;;;;;;;2.10;0.90;;;;;;;;;;10005993;29;20046;-84
2023/04/14 10:14:46;;;;;;;1.67;0.60;;;;;;;;;;9981415;29;20140;-83
2023/04/14 10:19:50;;;;;;;1.20;0.50;;;;;;;;;;9989727;29;20089;-85
2023/04/14 10:24:53;;;;;;;1.70;0.70;;;;;;;;;;10004844;29;20064;-82
2023/04/14 10:29:59;;;;;;;1.92;0.55;;;;;;;;;;9982172;29;20708;-85
2023/04/14 10:35:06;;;;;;;1.38;0.60;;;;;;;;;;9983278;29;20057;-85
2023/04/14 10:40:10;;;;;;;1.73;0.55;;;;;;;;;;9986331;29;20088;-82
2023/04/14 10:45:15;;;;;;;1.75;0.82;;;;;;;;;;9990533;29;20050;-84
2023/04/14 10:50:23;;;;;;;1.85;0.68;;;;;;;;;;9989952;29;20053;-81
2023/04/14 10:55:27;;;;;;;2.63;0.50;;;;;;;;;;10010655;29;20158;-80
2023/04/14 11:00:36;;;;;;;1.67;0.55;;;;;;;;;;9985819;29;20062;-80
2023/04/14 11:05:43;;;;;;;2.20;0.70;;;;;;;;;;10000803;29;20058;-80
2023/04/14 11:10:50;;;;;;;2.90;0.65;;;;;;;;;;10001173;29;20720;-80
2023/04/14 11:16:01;;;;;;;1.42;0.47;;;;;;;;;;10016763;29;20053;-81
2023/04/14 11:21:06;;;;;;;1.23;0.40;;;;;;;;;;10013958;29;20408;-80
2023/04/14 11:26:12;;;;;;;2.90;0.50;;;;;;;;;;10008555;29;20034;-80
2023/04/14 11:31:17;;;;;;;1.08;0.63;;;;;;;;;;10008688;29;20615;-80
2023/04/14 11:36:21;;;;;;;2.30;0.60;;;;;;;;;;9990592;29;20075;-82
2023/04/14 11:41:26;;;;;;;1.80;0.70;;;;;;;;;;10007014;29;20046;-82
2023/04/14 11:46:31;;;;;;;1.17;0.40;;;;;;;;;;9991884;29;20524;-83
2023/04/14 11:51:35;;;;;;;3.42;0.57;;;;;;;;;;10006733;29;20053;-86
2023/04/14 11:56:38;;;;;;;2.25;0.63;;;;;;;;;;10015256;29;20054;-84
2023/04/14 12:01:43;;;;;;;3.55;0.85;;;;;;;;;;10016719;29;20061;-83
2023/04/14 12:06:46;;;;;;;2.28;0.55;;;;;;;;;;10019065;29;20046;-84
2023/04/14 12:11:56;;;;;;;2.78;0.95;;;;;;;;;;10002162;29;20057;-85
2023/04/14 12:17:01;;;;;;;2.33;0.65;;;;;;;;;;9998683;29;20739;-84
2023/04/14 12:22:08;;;;;;;1.95;0.40;;;;;;;;;;10014957;29;20054;-84
2023/04/14 12:27:13;;;;;;;1.38;0.47;;;;;;;;;;10013699;29;20073;-83
2023/04/14 12:32:20;;;;;;;1.40;0.70;;;;;;;;;;10018873;29;20122;-83
2023/04/14 12:37:26;;;;;;;1.92;0.70;;;;;;;;;;10014091;29;20077;-87
2023/04/14 12:42:42;;;;;;;;;;;;;;;;;;10009010;29;20606;-84
2023/04/14 12:47:55;;;;;;;0.55;0.43;;;;;;;;;;10009323;29;20440;-83
2023/04/14 12:53:00;;;;;;;1.17;0.40;;;;;;;;;;10008601;29;20106;-84
2023/04/14 12:58:03;;;;;;;1.98;0.60;;;;;;;;;;9990442;29;20050;-84
2023/04/14 13:03:09;;;;;;;1.40;0.60;;;;;;;;;;10004284;29;20464;-84
2023/04/14 13:08:13;;;;;;;0.98;0.30;;;;;;;;;;10008010;29;20060;-85
2023/04/14 13:13:16;;;;;;;3.35;0.50;;;;;;;;;;10010276;29;20053;-83
2023/04/14 13:18:21;;;;;;;1.40;0.43;;;;;;;;;;10001962;29;20050;-87
2023/04/14 13:23:25;;;;;;;5.10;0.73;;;;;;;;;;10003370;29;20472;-84
2023/04/14 13:28:28;;;;;;;1.65;0.47;;;;;;;;;;10004013;29;20085;-83
2023/04/14 13:33:33;;;;;;;1.33;0.40;;;;;;;;;;10001355;29;20046;-83
2023/04/14 13:38:37;;;;;;;2.15;0.40;;;;;;;;;;9985541;29;20054;-83
2023/04/14 13:43:41;;;;;;;0.98;0.60;;;;;;;;;;10001404;29;20042;-81
2023/04/14 13:48:48;;;;;;;2.13;0.40;;;;;;;;;;10006816;29;20053;-81
2023/04/14 13:53:54;;;;;;;1.98;0.68;;;;;;;;;;9985352;29;20216;-84
2023/04/14 13:58:58;;;;;;;0.82;0.40;;;;;;;;;;10001815;29;20136;-83
2023/04/14 14:04:03;;;;;;;1.35;0.43;;;;;;;;;;10000505;29;20555;-85
2023/04/14 14:09:07;;;;;;;2.05;0.57;;;;;;;;;;10006455;29;20050;-86
2023/04/14 14:14:11;;;;;;;1.10;0.47;;;;;;;;;;10002652;29;20533;-82
2023/04/14 14:19:17;;;;;;;1.15;0.30;;;;;;;;;;9999010;29;20540;-87
2023/04/14 14:24:20;;;;;;;1.15;0.50;;;;;;;;;;9976549;29;20042;-84
2023/04/14 14:29:24;;;;;;;0.85;0.40;;;;;;;;;;9993432;29;20252;-82
2023/04/14 14:34:30;;;;;;;1.27;0.50;;;;;;;;;;9984827;29;20137;-84
2023/04/14 14:39:33;;;;;;;1.23;0.43;;;;;;;;;;9982022;29;20661;-85
2023/04/14 14:44:40;;;;;;;0.40;0.20;;;;;;;;;;10023853;23;20524;31
2023/04/14 14:49:45;;;;;;;0.82;0.25;;;;;;;;;;10018974;29;20147;-84
2023/04/14 14:54:55;;;;;;;2.03;0.47;;;;;;;;;;10050530;29;20041;-84
2023/04/14 15:00:06;;;;;;;1.05;0.35;;;;;;;;;;10038555;29;20050;-84
2023/04/14 15:05:11;;;;;;;0.43;0.22;;;;;;;;;;10022642;29;20054;-84
2023/04/14 15:10:15;;;;;;;1.45;0.50;;;;;;;;;;10047244;29;20638;-85
2023/04/14 15:15:18;;;;;;;1.58;0.70;;;;;;;;;;10026888;29;20042;-84
2023/04/14 15:20:23;;;;;;;0.95;0.45;;;;;;;;;;10018598;29;20432;-87
2023/04/14 15:25:26;;;;;;;1.35;0.50;;;;;;;;;;10049833;29;20530;-85
2023/04/14 15:30:31;;;;;;;0.50;0.30;;;;;;;;;;10026159;29;20404;-85
2023/04/14 15:35:36;;;;;;;0.88;0.22;;;;;;;;;;10050602;29;20752;-84
2023/04/14 15:40:40;;;;;;;;;;;;;;;;;;10048097;29;20503;-85
2023/04/14 15:45:43;;;;;;;1.52;0.20;;;;;;;;;;10046815;29;19972;-84
2023/04/14 15:50:48;;;;;;;0.70;0.20;;;;;;;;;;10031893;29;20144;-84
2023/04/14 15:55:52;;;;;;;0.60;0.10;;;;;;;;;;10030384;29;20055;-84
2023/04/14 16:00:55;;;;;;;0.65;0.35;;;;;;;;;;10029868;29;20046;-84
2023/04/14 16:06:05;;;;;;;0.80;0.20;;;;;;;;;;10030016;29;20045;-86
2023/04/14 16:11:14;;;;;;;0.63;0.30;;;;;;;;;;10029960;29;20055;-84
2023/04/14 16:16:18;;;;;;;0.70;0.30;;;;;;;;;;10023594;29;20554;-84
2023/04/14 16:21:22;;;;;;;1.10;0.17;;;;;;;;;;10032572;29;20073;-84
2023/04/14 16:26:26;;;;;;;0.93;0.30;;;;;;;;;;10032890;29;20050;-89
2023/04/14 16:31:30;;;;;;;1.02;0.20;;;;;;;;;;10048218;29;20046;-85
2023/04/14 16:36:35;;;;;;;2.50;0.30;;;;;;;;;;10031463;29;20055;-87
2023/04/14 16:41:39;;;;;;;0.35;0.30;;;;;;;;;;10031273;29;20049;-85
2023/04/14 16:46:42;;;;;;;1.25;0.30;;;;;;;;;;10046927;29;20045;-87
2023/04/14 16:51:47;;;;;;;0.75;0.25;;;;;;;;;;10021698;29;20125;-89
2023/04/14 16:56:51;;;;;;;1.40;0.32;;;;;;;;;;10021758;29;20049;-88
2023/04/14 17:01:55;;;;;;;0.82;0.20;;;;;;;;;;10027226;29;20136;-89
2023/04/14 17:06:59;;;;;;;1.00;0.32;;;;;;;;;;10037339;29;20132;-89
2023/04/14 17:12:03;;;;;;;0.98;0.22;;;;;;;;;;10027314;29;20532;-85
2023/04/14 17:17:06;;;;;;;0.70;0.40;;;;;;;;;;10045827;29;20048;-84
2023/04/14 17:22:11;;;;;;;0.65;0.30;;;;;;;;;;10028834;29;20136;-85
2023/04/14 17:27:14;;;;;;;1.38;0.50;;;;;;;;;;10027495;29;20061;-87
2023/04/14 17:32:18;;;;;;;0.70;0.50;;;;;;;;;;10045055;29;20152;-85
2023/04/14 17:37:24;;;;;;;1.40;0.73;;;;;;;;;;10042994;29;20046;-84
2023/04/14 17:42:27;;;;;;;1.05;0.60;;;;;;;;;;10025955;29;20142;-89
2023/04/14 17:47:36;;;;;;;1.80;0.55;;;;;;;;;;10027302;29;20055;-85
2023/04/14 17:52:41;;;;;;;0.95;0.55;;;;;;;;;;10027599;29;20656;-85
2023/04/14 17:57:45;;;;;;;1.13;0.35;;;;;;;;;;10043650;29;20503;-85
2023/04/14 18:02:48;;;;;;;1.25;0.40;;;;;;;;;;10026619;29;20049;-86
2023/04/14 18:07:54;;;;;;;3.22;1.63;;;;;;;;;;10045104;29;20113;-85
2023/04/14 18:12:58;;;;;;;13.10;7.60;;;;;;;;;;10027959;29;20136;-86
2023/04/14 18:18:02;;;;;;;10.40;5.30;;;;;;;;;;10044594;29;20544;-88
2023/04/14 18:23:07;;;;;;;4.03;2.80;;;;;;;;;;10043691;29;20732;-88
2023/04/14 18:28:11;;;;;;;3.25;2.22;;;;;;;;;;10052210;29;20582;-88
2023/04/14 18:33:14;;;;;;;7.68;4.20;;;;;;;;;;10047599;29;20058;-85
2023/04/14 18:38:19;;;;;;;23.23;10.15;;;;;;;;;;10035605;29;20045;-86
2023/04/14 18:43:22;;;;;;;17.27;7.72;;;;;;;;;;10027954;29;20260;-84
2023/04/14 18:48:26;;;;;;;10.98;5.50;;;;;;;;;;10035413;29;20057;-87
2023/04/14 18:53:31;;;;;;;7.95;4.13;;;;;;;;;;10047712;29;20050;-82
2023/04/14 18:58:34;;;;;;;6.03;3.22;;;;;;;;;;10026431;29;20060;-82
2023/04/14 19:03:38;;;;;;;6.40;2.78;;;;;;;;;;10025970;29;20057;-82
2023/04/14 19:08:43;;;;;;;4.32;2.05;;;;;;;;;;10042465;29;20116;-82
2023/04/14 19:13:46;;;;;;;3.83;1.88;;;;;;;;;;10026058;29;20061;-85
2023/04/14 19:18:51;;;;;;;3.50;1.92;;;;;;;;;;10039211;29;20577;-82
2023/04/14 19:23:56;;;;;;;2.78;1.90;;;;;;;;;;10041231;29;20042;-83
2023/04/14 19:28:59;;;;;;;2.20;1.42;;;;;;;;;;10042537;29;20040;-84
2023/04/14 19:34:03;;;;;;;2.97;1.83;;;;;;;;;;10020564;29;20053;-83
2023/04/14 19:39:09;;;;;;;3.05;1.80;;;;;;;;;;10025184;29;20048;-83
2023/04/14 19:44:13;;;;;;;4.95;2.22;;;;;;;;;;10032249;29;20594;-83
2023/04/14 19:49:16;;;;;;;4.88;2.90;;;;;;;;;;10025430;29;20124;-84
2023/04/14 19:54:21;;;;;;;4.47;2.97;;;;;;;;;;10041764;29;20466;-83
2023/04/14 19:59:25;;;;;;;5.25;3.30;;;;;;;;;;10025339;29;20098;-83
2023/04/14 20:04:28;;;;;;;5.05;2.75;;;;;;;;;;10016590;29;20783;-83
2023/04/14 20:09:33;;;;;;;4.32;2.80;;;;;;;;;;10062202;29;20070;-83
2023/04/14 20:14:36;;;;;;;6.93;3.70;;;;;;;;;;10030238;29;20404;-83
2023/04/14 20:19:43;;;;;;;5.75;2.85;;;;;;;;;;10029473;29;20140;-82
2023/04/14 20:24:54;;;;;;;6.35;2.80;;;;;;;;;;10047485;29;20464;-83
2023/04/14 20:29:58;;;;;;;5.22;3.22;;;;;;;;;;10022460;29;20102;-83
2023/04/14 20:35:02;;;;;;;6.93;3.72;;;;;;;;;;10022641;29;20072;-83
2023/04/14 20:40:08;;;;;;;6.97;3.25;;;;;;;;;;10032597;29;20145;-83
2023/04/14 20:45:12;;;;;;;4.13;2.42;;;;;;;;;;10064224;23;20427;-84
2023/04/14 20:50:16;;;;;;;6.70;2.22;;;;;;;;;;9986594;29;20054;-84
2023/04/14 20:55:22;;;;;;;3.08;1.63;;;;;;;;;;10004518;29;20128;-85
2023/04/14 21:00:26;;;;;;;2.67;1.90;;;;;;;;;;9986029;29;20066;-85
2023/04/14 21:05:29;;;;;;;3.35;2.38;;;;;;;;;;10003201;29;20716;-88
2023/04/14 21:10:34;;;;;;;4.28;1.85;;;;;;;;;;10005612;29;20058;-87
2023/04/14 21:15:39;;;;;;;4.15;2.00;;;;;;;;;;10001566;29;20139;-82
2023/04/14 21:20:42;;;;;;;3.63;2.00;;;;;;;;;;9996925;29;20050;-82
2023/04/14 21:25:47;;;;;;;4.60;2.22;;;;;;;;;;9997459;29;20538;-82
2023/04/14 21:30:53;;;;;;;4.78;2.53;;;;;;;;;;10002372;29;20068;-83
2023/04/14 21:35:56;;;;;;;4.37;2.23;;;;;;;;;;9981808;29;20456;-83
2023/04/14 21:41:01;;;;;;;3.42;2.10;;;;;;;;;;9994122;29;20069;-83
2023/04/14 21:46:05;;;;;;;4.80;1.40;;;;;;;;;;10003712;29;20049;-84
2023/04/14 21:51:08;;;;;;;2.97;1.75;;;;;;;;;;9987944;29;20061;-85
2023/04/14 21:56:13;;;;;;;3.38;1.60;;;;;;;;;;9986759;29;20049;-83
2023/04/14 22:01:17;;;;;;;3.67;1.95;;;;;;;;;;9992172;29;20136;-82
2023/04/14 22:06:20;;;;;;;4.90;2.40;;;;;;;;;;10000591;29;20579;-83
2023/04/14 22:11:25;;;;;;;4.70;2.33;;;;;;;;;;9998728;29;20056;-82
2023/04/14 22:16:28;;;;;;;7.20;3.83;;;;;;;;;;10005023;29;20481;-83
2023/04/14 22:21:32;;;;;;;7.13;3.17;;;;;;;;;;10006361;29;20081;-83
2023/04/14 22:26:37;;;;;;;3.90;2.20;;;;;;;;;;9984013;29;20420;-83
2023/04/14 22:31:40;;;;;;;4.40;2.25;;;;;;;;;;9999576;29;20060;-83
2023/04/14 22:36:43;;;;;;;5.57;3.17;;;;;;;;;;9999564;29;20534;-83
2023/04/14 22:41:50;;;;;;;6.60;3.38;;;;;;;;;;9981999;29;20061;-83
2023/04/14 22:46:53;;;;;;;;;;;;;;;;;;9998881;29;20050;-83
2023/04/14 22:51:57;;;;;;;6.00;2.78;;;;;;;;;;9983157;29;20019;-83
2023/04/14 22:57:01;;;;;;;5.53;2.38;;;;;;;;;;10001921;29;20069;-83
2023/04/14 23:02:05;;;;;;;4.47;2.63;;;;;;;;;;10008059;29;20133;-83
2023/04/14 23:07:08;;;;;;;4.10;2.30;;;;;;;;;;9992441;29;20110;-83
2023/04/14 23:12:13;;;;;;;4.30;2.03;;;;;;;;;;10009361;29;20524;-87
2023/04/14 23:17:17;;;;;;;5.35;2.13;;;;;;;;;;10001532;29;20081;-85
2023/04/14 23:22:20;;;;;;;3.22;1.65;;;;;;;;;;10031396;29;20046;-89
2023/04/14 23:27:25;;;;;;;3.63;1.70;;;;;;;;;;9998412;29;20527;-88
2023/04/14 23:32:29;;;;;;;2.85;1.73;;;;;;;;;;10006988;29;20057;-82
2023/04/14 23:37:32;;;;;;;4.82;2.00;;;;;;;;;;10003360;29;20056;-83
2023/04/14 23:42:37;;;;;;;3.17;1.98;;;;;;;;;;9983115;29;20140;-83
2023/04/14 23:47:41;;;;;;;3.63;2.00;;;;;;;;;;10005850;29;20046;-83
2023/04/14 23:52:46;;;;;;;3.63;1.65;;;;;;;;;;9992000;29;20133;-82
2023/04/14 23:57:54;;;;;;;2.60;1.52;;;;;;;;;;10004326;29;20046;-82
